Terminal Aerodrome Forecast
Issued by NWS

Home | Current Version | Previous Version | Text Only | Print | Product List | Glossary On
Versions: 1 2 3 4 5 6 7 8 9 10 11 12 13 14 15 16 17 18 19 20 21 22 23 24 25 26 27 28 29 30 31
000
FTUS43 KICT 221740
TAFSLN
TAF
KSLN 221740Z 2218/2318 34021G29KT 4SM BR VCSH OVC006
      TEMPO 2218/2220 2SM -FZDZ
     FM222000 34022G30KT P6SM VCSH OVC010
     FM222300 34022G30KT 1 1/2SM -SN OVC020
     FM230100 33020G28KT 4SM -SN BLSN OVC027
     FM230600 33016G24KT P6SM VCSH OVC040
     FM230900 32013KT P6SM SCT080=

USA.gov is the U.S. government's official web portal to all federal, state and local government web resources and services.